createdAt,value
2023-01-30T00:00:19.060Z,100632.05
2023-01-30T00:03:26.758Z,100624.82
2023-01-30T00:06:39.194Z,100620.52
2023-01-30T00:09:31.451Z,100621.10
2023-01-30T00:12:17.664Z,100628.77
2023-01-30T00:15:11.397Z,100632.63
2023-01-30T00:18:22.365Z,100630.35
2023-01-30T00:21:59.451Z,100635.46
2023-01-30T00:24:51.167Z,100634.20
2023-01-30T00:27:55.247Z,100633.36
2023-01-30T00:31:05.943Z,100634.55
2023-01-30T00:33:52.225Z,100632.19
2023-01-30T00:36:40.231Z,100630.10
2023-01-30T00:39:21.056Z,100622.15
2023-01-30T00:42:10.063Z,100618.34
2023-01-30T00:44:56.800Z,100611.02
2023-01-30T00:47:26.911Z,100608.73
2023-01-30T00:49:55.397Z,100606.92
2023-01-30T00:52:26.064Z,100602.78
2023-01-30T00:54:54.237Z,100601.37
2023-01-30T00:57:22.380Z,100600.11
2023-01-30T00:59:50.521Z,100597.94
2023-01-30T01:02:18.739Z,100598.32
2023-01-30T01:04:46.744Z,100595.01
2023-01-30T01:07:15.144Z,100590.88
2023-01-30T01:09:43.202Z,100598.55
2023-01-30T01:12:11.188Z,100594.20
2023-01-30T01:14:39.197Z,100588.16
2023-01-30T01:17:07.423Z,100587.29
2023-01-30T01:19:35.552Z,100582.55
2023-01-30T01:22:03.624Z,100574.92
2023-01-30T01:24:31.854Z,100575.48
2023-01-30T01:26:59.987Z,100575.05
2023-01-30T01:29:28.200Z,100577.28
2023-01-30T01:31:59.310Z,100577.88
2023-01-30T01:34:27.516Z,100573.80
2023-01-30T01:36:55.691Z,100564.80
2023-01-30T01:39:43.885Z,100554.08
2023-01-30T01:42:15.540Z,100549.90
2023-01-30T01:45:04.972Z,100545.23
2023-01-30T01:47:34.534Z,100544.36
2023-01-30T01:50:04.901Z,100544.25
2023-01-30T01:52:33.343Z,100537.75
2023-01-30T01:55:03.484Z,100533.33
2023-01-30T01:57:36.518Z,100523.98
2023-01-30T02:00:13.095Z,100523.23
2023-01-30T02:02:50.310Z,100527.40
2023-01-30T02:05:24.993Z,100531.39
2023-01-30T02:08:40.448Z,100527.85
2023-01-30T02:12:10.361Z,100532.27
2023-01-30T02:14:40.256Z,100534.48
2023-01-30T02:17:16.496Z,100537.31
2023-01-30T02:20:03.146Z,100527.80
2023-01-30T02:23:14.021Z,100525.44
2023-01-30T02:25:48.455Z,100529.04
2023-01-30T02:28:29.051Z,100517.96
2023-01-30T02:31:25.604Z,100513.20
2023-01-30T02:34:06.681Z,100515.30
2023-01-30T02:36:53.119Z,100517.50
2023-01-30T02:40:15.983Z,100517.06
2023-01-30T02:43:24.567Z,100516.05
2023-01-30T02:46:17.103Z,100512.57
2023-01-30T02:48:52.839Z,100514.98
2023-01-30T02:51:33.646Z,100511.95
2023-01-30T02:54:11.261Z,100511.36
2023-01-30T02:56:50.287Z,100507.79
2023-01-30T03:00:01.798Z,100507.55
2023-01-30T03:03:07.277Z,100500.73
2023-01-30T03:06:14.832Z,100503.23
2023-01-30T03:09:21.972Z,100502.77
2023-01-30T03:12:14.075Z,100498.84
2023-01-30T03:15:03.191Z,100491.58
2023-01-30T03:17:52.381Z,100489.64
2023-01-30T03:20:26.706Z,100486.23
2023-01-30T03:22:55.661Z,100486.95
2023-01-30T03:25:33.439Z,100487.07
2023-01-30T03:28:06.021Z,100488.44
2023-01-30T03:30:34.550Z,100489.06
2023-01-30T03:33:10.335Z,100487.98
2023-01-30T03:35:39.660Z,100487.12
2023-01-30T03:38:11.323Z,100488.50
2023-01-30T03:40:39.643Z,100485.46
2023-01-30T03:43:08.010Z,100475.52
2023-01-30T03:45:40.869Z,100475.02
2023-01-30T03:48:10.990Z,100476.94
2023-01-30T05:35:11.325Z,100391.06
2023-01-30T05:37:39.288Z,100389.39
2023-01-30T05:40:35.395Z,100387.70
2023-01-30T05:43:14.254Z,100391.97
2023-01-30T06:32:03.556Z,100405.55
2023-01-30T12:01:38.686Z,100025.68
2023-01-30T12:04:24.632Z,100017.80
2023-01-30T12:11:07.494Z,99998.11
2023-01-30T12:14:23.959Z,99989.21
2023-01-30T12:20:48.120Z,100007.48
2023-01-30T12:21:01.391Z,99980.98
2023-01-30T12:24:37.967Z,99986.12
2023-01-30T12:31:01.498Z,99964.66
2023-01-30T12:33:41.077Z,99952.00
2023-01-30T12:36:47.454Z,99942.15
2023-01-30T12:39:48.072Z,99937.21
2023-01-30T12:43:30.075Z,99933.89
2023-01-30T12:54:42.008Z,99903.51
2023-01-30T13:01:46.736Z,99899.45
2023-01-30T13:05:38.911Z,99903.39
2023-01-30T13:12:42.001Z,99894.19
2023-01-30T13:16:08.019Z,99892.30
2023-01-30T13:19:14.090Z,99891.88
2023-01-30T13:22:35.482Z,99895.33
2023-01-30T13:25:26.054Z,99884.79
2023-01-30T13:28:30.734Z,99873.20
2023-01-30T13:31:06.594Z,99859.80
2023-01-30T13:37:13.368Z,99859.42
2023-01-30T13:40:39.765Z,99855.54
2023-01-30T13:46:28.661Z,99852.10
2023-01-30T13:49:18.048Z,99846.34
2023-01-30T13:52:16.946Z,99851.47
2023-01-30T14:00:55.565Z,99837.95
2023-01-30T14:04:44.426Z,99835.63
2023-01-30T14:10:54.813Z,99810.09
2023-01-30T14:13:23.660Z,99809.41
2023-01-30T14:16:11.454Z,99811.38
2023-01-30T14:19:07.738Z,99809.51
2023-01-30T14:22:02.493Z,99808.73
2023-01-30T14:25:11.947Z,99799.59
2023-01-30T14:28:07.050Z,99796.90
2023-01-30T14:30:48.132Z,99795.90
2023-01-30T14:33:48.714Z,99799.08
2023-01-30T14:36:20.642Z,99804.71
2023-01-30T14:39:15.935Z,99808.02
2023-01-30T14:41:43.025Z,99806.83
2023-01-30T14:45:23.303Z,99811.72
2023-01-30T14:48:21.654Z,99811.32
2023-01-30T14:51:09.466Z,99814.01
2023-01-30T14:53:59.848Z,99809.15
2023-01-30T14:57:45.101Z,99804.14
2023-01-30T15:00:47.664Z,99803.79
2023-01-30T15:04:17.748Z,99807.95
2023-01-30T15:07:08.489Z,99802.31
2023-01-30T15:09:46.725Z,99797.59
2023-01-30T15:12:37.607Z,99803.30
2023-01-30T15:15:32.180Z,99804.90
2023-01-30T15:18:18.108Z,99801.40
2023-01-30T15:20:51.066Z,99786.79
2023-01-30T15:23:50.701Z,99775.02
2023-01-30T15:27:15.385Z,99776.23
2023-01-30T15:31:00.504Z,99773.79
2023-01-30T15:33:32.138Z,99778.86
2023-01-30T15:36:49.647Z,99782.95
2023-01-30T15:39:29.405Z,99784.30
2023-01-30T15:42:06.973Z,99783.79
2023-01-30T15:44:59.578Z,99783.50
2023-01-30T15:48:32.728Z,99783.89
2023-01-30T15:55:23.292Z,99794.27
2023-01-30T15:58:23.085Z,99790.83
2023-01-30T16:01:19.486Z,99785.95
2023-01-30T16:04:13.081Z,99782.56
2023-01-30T16:10:07.262Z,99781.17
2023-01-30T16:13:24.943Z,99778.89
2023-01-30T16:16:44.511Z,99778.79
2023-01-30T16:19:37.435Z,99784.73
2023-01-30T16:26:27.417Z,99791.34
2023-01-30T16:29:42.883Z,99796.52
2023-01-30T16:32:41.587Z,99790.91
2023-01-30T16:35:54.089Z,99780.27
2023-01-30T16:39:13.525Z,99779.95
2023-01-30T16:41:44.301Z,99778.47
2023-01-30T16:48:26.017Z,99779.23
2023-01-30T16:51:02.768Z,99774.20
2023-01-30T16:53:33.579Z,99773.90
2023-01-30T16:56:17.639Z,99774.58
2023-01-30T16:59:33.409Z,99778.25
2023-01-30T17:02:32.794Z,99776.45
2023-01-30T17:06:24.343Z,99775.16
2023-01-30T17:10:34.603Z,99773.33
2023-01-30T17:13:46.487Z,99766.07
2023-01-30T17:17:47.296Z,99762.66
2023-01-30T17:20:48.146Z,99760.21
2023-01-30T17:24:42.030Z,99756.05
2023-01-30T17:28:24.447Z,99751.52
2023-01-30T17:32:02.033Z,99750.11
2023-01-30T17:35:52.679Z,99746.54
2023-01-30T17:40:07.014Z,99749.23
2023-01-30T17:42:49.235Z,99758.26
2023-01-30T17:45:20.207Z,99761.93
2023-01-30T17:52:13.736Z,99756.73
2023-01-30T17:54:41.181Z,99751.47
2023-01-30T17:57:16.310Z,99752.85
2023-01-30T17:59:55.336Z,99748.06
2023-01-30T18:02:48.047Z,99741.21
2023-01-30T18:05:39.104Z,99741.89
2023-01-30T18:13:26.965Z,99751.23
2023-01-30T18:16:19.035Z,99751.92
2023-01-30T18:23:16.898Z,99755.99
2023-01-30T18:30:17.042Z,99744.09
2023-01-30T18:32:53.905Z,99745.59
2023-01-30T18:35:50.726Z,99743.83
2023-01-30T18:42:45.903Z,99725.44
2023-01-30T18:45:46.641Z,99720.84
2023-01-30T18:48:43.090Z,99720.23
2023-01-30T18:51:50.451Z,99716.06
2023-01-30T18:54:44.507Z,99708.02
2023-01-30T18:58:03.388Z,99706.14
2023-01-30T19:00:38.177Z,99709.98
2023-01-30T19:03:12.896Z,99707.92
2023-01-30T19:06:33.210Z,99710.25
2023-01-30T19:09:07.296Z,99713.96
2023-01-30T19:12:04.206Z,99711.50
2023-01-30T19:14:31.144Z,99709.24
2023-01-30T19:17:09.458Z,99709.23
2023-01-30T19:19:46.957Z,99713.73
2023-01-30T19:22:18.106Z,99712.35
2023-01-30T19:24:58.593Z,99710.34
2023-01-30T19:27:29.073Z,99706.89
2023-01-30T19:29:59.128Z,99697.63
2023-01-30T19:32:28.558Z,99697.25
2023-01-30T19:34:56.121Z,99706.80
2023-01-30T19:37:26.647Z,99709.11
2023-01-30T19:39:56.196Z,99709.36
2023-01-30T19:42:22.934Z,99702.50
2023-01-30T19:45:02.720Z,99706.48
2023-01-30T19:48:13.681Z,99705.23
2023-01-30T19:54:51.701Z,99696.77
2023-01-30T19:57:27.955Z,99696.78
2023-01-30T19:59:57.908Z,99702.55
2023-01-30T20:02:37.765Z,99706.96
2023-01-30T20:05:35.344Z,99706.48
2023-01-30T20:08:02.061Z,99707.41
2023-01-30T20:10:31.194Z,99707.19
2023-01-30T20:13:03.989Z,99705.18
2023-01-30T20:15:41.127Z,99701.06
2023-01-30T20:18:08.033Z,99696.08
2023-01-30T20:20:35.562Z,99686.63
2023-01-30T20:23:03.941Z,99689.00
2023-01-30T20:25:35.454Z,99686.09
2023-01-30T20:28:12.841Z,99684.88
2023-01-30T20:30:50.946Z,99693.41
2023-01-30T20:33:29.195Z,99693.48
2023-01-30T20:36:02.885Z,99693.35
2023-01-30T20:38:31.230Z,99696.34
2023-01-30T20:41:08.929Z,99695.17
2023-01-30T20:43:40.830Z,99687.07
2023-01-30T20:46:16.841Z,99687.90
2023-01-30T20:48:47.000Z,99685.23
2023-01-30T20:51:30.235Z,99691.96
2023-01-30T20:54:05.342Z,99692.84
2023-01-30T20:56:36.180Z,99689.34
2023-01-30T20:59:10.157Z,99683.37
2023-01-30T21:01:40.528Z,99678.86
2023-01-30T21:04:15.974Z,99676.79
2023-01-30T21:06:46.027Z,99679.59
2023-01-30T21:09:19.421Z,99683.59
2023-01-30T21:11:56.337Z,99676.13
2023-01-30T21:14:24.985Z,99673.52
2023-01-30T21:16:53.535Z,99671.23
2023-01-30T21:19:32.223Z,99672.74
2023-01-30T21:22:21.587Z,99677.17
2023-01-30T21:24:54.014Z,99682.09
2023-01-30T21:27:21.119Z,99676.30
2023-01-30T21:29:55.830Z,99672.20
2023-01-30T21:32:26.642Z,99665.27
2023-01-30T21:34:53.459Z,99659.92
2023-01-30T21:37:45.613Z,99651.61
2023-01-30T21:40:50.119Z,99649.98
2023-01-30T21:43:17.436Z,99642.16
2023-01-30T21:45:46.542Z,99636.85
2023-01-30T21:48:13.449Z,99634.67
2023-01-30T21:50:41.929Z,99637.46
2023-01-30T21:53:08.833Z,99646.34
2023-01-30T21:55:40.618Z,99649.73
2023-01-30T21:59:04.017Z,99650.96
2023-01-30T22:02:08.167Z,99646.83
2023-01-30T22:05:22.585Z,99650.23
2023-01-30T22:12:14.687Z,99646.34
2023-01-30T22:14:42.199Z,99644.84
2023-01-30T22:18:01.275Z,99647.98
2023-01-30T22:21:47.504Z,99639.61
2023-01-30T22:24:19.089Z,99642.11
2023-01-30T22:27:16.469Z,99644.16
2023-01-30T22:29:43.583Z,99641.70
2023-01-30T22:32:10.874Z,99646.95
2023-01-30T22:34:39.885Z,99646.76
2023-01-30T22:37:06.724Z,99646.52
2023-01-30T22:39:37.250Z,99642.59
2023-01-30T22:42:04.384Z,99633.71
2023-01-30T22:44:34.074Z,99633.95
2023-01-30T22:47:03.293Z,99639.62
2023-01-30T22:49:30.223Z,99637.56
2023-01-30T22:52:02.922Z,99634.56
2023-01-30T22:54:29.914Z,99636.67
2023-01-30T22:57:02.471Z,99636.61
2023-01-30T22:59:31.501Z,99638.69
2023-01-30T23:01:58.335Z,99637.22
2023-01-30T23:04:26.878Z,99634.02
2023-01-30T23:06:58.902Z,99631.13
2023-01-30T23:09:28.548Z,99623.45
2023-01-30T23:12:15.873Z,99624.98
2023-01-30T23:14:42.901Z,99629.05
2023-01-30T23:17:37.855Z,99637.64
2023-01-30T23:20:12.599Z,99636.23
2023-01-30T23:22:39.416Z,99637.39
2023-01-30T23:25:10.547Z,99635.37
2023-01-30T23:27:41.538Z,99628.15
2023-01-30T23:30:09.147Z,99623.48
2023-01-30T23:32:43.217Z,99620.21
2023-01-30T23:35:24.287Z,99621.85
2023-01-30T23:38:09.690Z,99622.93
2023-01-30T23:40:38.914Z,99619.83
2023-01-30T23:43:05.917Z,99617.46
2023-01-30T23:45:34.305Z,99614.04
2023-01-30T23:48:01.357Z,99613.32
2023-01-30T23:50:29.904Z,99615.53
2023-01-30T23:53:05.907Z,99615.38
2023-01-30T23:55:35.452Z,99619.19
2023-01-30T23:58:02.539Z,99620.40
